Time;durP1;ratioP1;P1;durP2;ratioP2;P2;SDS_P1;SDS_P2;PMS_P1;PMS_P2;Temp;Humidity;BMP_temperature;BMP_pressure;BME280_temperature;BME280_humidity;BME280_pressure;Samples;Min_cycle;Max_cycle;Signal;HPM_P1;HPM_P2
2021/01/01 00:00:50;;;;;;;24.95;20.35;;;2.40;99.90;;;2.01;86.67;100381.66;4122507;28;20099;-70
2021/01/01 00:02:51;;;;;;;27.67;20.10;;;2.50;99.90;;;2.18;85.85;100373.47;4102881;29;20034;-70
2021/01/01 00:04:52;;;;;;;36.58;22.02;;;2.50;99.90;;;2.28;85.07;100371.84;4102987;29;20047;-70
2021/01/01 00:06:53;;;;;;;31.92;20.65;;;2.60;99.90;;;2.17;85.26;100372.66;4102723;29;20027;-70
2021/01/01 00:08:55;;;;;;;27.88;19.98;;;2.60;99.90;;;2.04;85.84;100364.06;4119883;28;20034;-70
2021/01/01 00:10:56;;;;;;;32.80;20.70;;;2.50;99.90;;;1.99;85.68;100365.34;4103007;28;20558;-70
2021/01/01 00:12:57;;;;;;;32.45;21.75;;;2.50;99.90;;;1.89;86.01;100359.13;4120096;28;20034;-70
2021/01/01 00:14:58;;;;;;;27.10;20.02;;;2.50;99.90;;;1.70;87.67;100362.22;4120046;28;20027;-70
2021/01/01 00:17:00;;;;;;;29.15;19.90;;;2.40;99.90;;;1.84;87.37;100367.28;4119975;28;20030;-70
2021/01/01 00:19:01;;;;;;;26.10;19.33;;;2.40;99.90;;;1.94;87.34;100357.84;4102965;28;20479;-70
2021/01/01 00:21:02;;;;;;;28.90;19.63;;;2.50;99.90;;;2.11;85.44;100359.25;4119787;28;20031;-70
2021/01/01 00:23:03;;;;;;;27.52;19.08;;;2.50;99.90;;;2.14;85.15;100365.06;4102416;29;20075;-70
2021/01/01 00:25:05;;;;;;;31.60;21.08;;;2.60;99.90;;;2.07;85.49;100361.22;4119849;28;20039;-70
2021/01/01 00:27:06;;;;;;;42.25;31.38;;;2.60;99.90;;;2.07;85.65;100360.41;4119753;28;20023;-70
2021/01/01 00:29:07;;;;;;;45.58;34.25;;;2.60;99.90;;;2.04;86.06;100345.00;4102671;28;20034;-70
2021/01/01 00:31:14;;;;;;;43.75;31.00;;;2.60;99.90;;;2.09;86.27;100348.94;4119873;28;20029;-70
2021/01/01 00:33:15;;;;;;;35.00;25.27;;;2.60;99.90;;;2.19;85.81;100344.72;4103324;28;20574;-70
2021/01/01 00:35:17;;;;;;;34.40;25.17;;;2.70;99.90;;;2.34;84.88;100347.13;4102723;28;20034;-70
2021/01/01 00:37:18;;;;;;;36.97;25.55;;;2.70;99.90;;;2.33;84.25;100350.69;4119548;28;20054;-70
2021/01/01 00:39:19;;;;;;;33.88;23.75;;;2.70;99.90;;;2.16;86.16;100336.31;4119742;28;20039;-70
2021/01/01 00:41:31;;;;;;;35.20;23.67;;;2.80;99.90;;;2.15;86.48;100350.28;4119342;28;20033;-70
2021/01/01 00:43:33;;;;;;;33.25;23.23;;;2.70;99.90;;;2.07;86.75;100350.81;4119623;28;20066;-70
2021/01/01 00:45:34;;;;;;;23.35;16.73;;;2.70;99.90;;;2.06;87.21;100346.56;4119385;28;20019;-70
2021/01/01 00:47:35;;;;;;;18.45;12.85;;;2.70;99.90;;;2.16;87.03;100347.56;4121005;28;20030;-70
2021/01/01 00:49:36;;;;;;;15.45;11.43;;;2.80;99.90;;;2.24;86.80;100345.22;4120738;28;20027;-70
2021/01/01 00:51:38;;;;;;;11.77;10.05;;;2.80;99.90;;;2.02;87.06;100347.75;4119590;28;20065;-70
2021/01/01 00:53:39;;;;;;;22.58;11.68;;;2.70;99.90;;;2.10;87.27;100334.16;4119561;28;20035;-70
2021/01/01 00:55:40;;;;;;;26.38;11.20;;;2.70;99.90;;;2.03;87.47;100332.97;4119456;28;20062;-71
2021/01/01 00:57:41;;;;;;;12.80;9.13;;;2.70;99.90;;;2.00;88.17;100336.59;4119505;28;20030;-70
2021/01/01 00:59:42;;;;;;;10.75;9.32;;;2.70;99.90;;;2.21;88.13;100336.81;4102476;29;20046;-70
2021/01/01 01:01:43;;;;;;;11.35;9.13;;;2.80;99.90;;;2.21;88.20;100340.22;4119468;28;20398;-70
2021/01/01 01:03:44;;;;;;;13.95;9.93;;;2.80;99.90;;;2.18;89.00;100342.25;4119526;28;20030;-70
2021/01/01 01:05:45;;;;;;;12.25;9.55;;;2.80;99.90;;;2.15;89.53;100334.69;4124011;28;20031;-70
2021/01/01 01:07:46;;;;;;;11.38;8.95;;;2.80;99.90;;;2.19;89.11;100338.69;4107460;29;20064;-71
2021/01/01 01:09:47;;;;;;;11.48;10.05;;;2.80;99.90;;;2.30;88.59;100343.13;4124715;28;20085;-70
2021/01/01 01:11:48;;;;;;;11.98;9.80;;;2.80;99.90;;;2.22;87.93;100335.88;4107597;28;20054;-71
2021/01/01 01:13:49;;;;;;;11.52;9.82;;;2.90;99.90;;;2.17;89.07;100341.41;4107519;28;20343;-70
2021/01/01 01:15:50;;;;;;;15.65;12.50;;;2.80;99.90;;;2.09;89.70;100333.31;4124840;28;20058;-70
2021/01/01 01:17:51;;;;;;;13.35;10.70;;;2.80;99.90;;;2.16;88.82;100339.75;4107608;28;20034;-70
2021/01/01 01:19:51;;;;;;;13.55;10.38;;;2.80;99.90;;;2.11;89.27;100336.66;4124634;28;20030;-71
2021/01/01 01:21:52;;;;;;;15.30;11.23;;;2.80;99.90;;;2.28;89.05;100340.63;4124278;28;20070;-71
2021/01/01 01:23:55;;;;;;;14.20;11.60;;;2.80;99.90;;;2.31;88.77;100335.19;4124840;28;20084;-70
2021/01/01 01:25:56;;;;;;;14.90;11.73;;;2.90;99.90;;;2.20;89.90;100330.78;4124695;28;20023;-71
2021/01/01 01:27:57;;;;;;;16.17;11.55;;;2.90;99.90;;;2.38;89.31;100343.38;4107485;28;20422;-71
2021/01/01 01:29:58;;;;;;;16.58;11.48;;;3.00;99.90;;;2.36;89.52;100350.47;4123306;28;20022;-71
2021/01/01 01:31:58;;;;;;;16.42;12.68;;;3.00;99.90;;;2.29;89.57;100351.88;4107516;28;20066;-70
2021/01/01 01:33:59;;;;;;;23.45;14.88;;;3.00;99.90;;;2.36;89.48;100355.69;4124662;28;20045;-70
2021/01/01 01:36:00;;;;;;;16.38;11.60;;;3.00;99.90;;;2.45;89.61;100355.00;4124526;28;20065;-70
2021/01/01 01:38:03;;;;;;;18.10;12.13;;;3.10;99.90;;;2.39;89.42;100355.47;4124280;28;20027;-70
2021/01/01 01:40:06;;;;;;;23.15;13.98;;;3.10;99.90;;;2.38;90.07;100359.00;4124662;28;20387;-71
2021/01/01 01:42:07;;;;;;;16.95;12.57;;;3.00;99.90;;;2.58;88.15;100351.34;4124266;28;20071;-70
2021/01/01 01:44:08;;;;;;;20.25;13.63;;;3.10;99.90;;;2.65;88.59;100351.72;4123149;28;20503;-71
2021/01/01 01:46:09;;;;;;;18.92;12.77;;;3.10;99.90;;;2.73;87.65;100359.78;4124469;28;20034;-71
2021/01/01 01:48:17;;;;;;;20.70;13.68;;;3.20;99.90;;;2.85;86.95;100352.81;4127027;28;20019;-71
2021/01/01 01:50:18;;;;;;;19.15;12.18;;;3.30;99.90;;;2.78;86.79;100363.72;4107861;28;20079;-71
2021/01/01 01:52:19;;;;;;;19.08;13.40;;;3.30;99.90;;;2.70;87.03;100362.63;4106958;29;20040;-71
2021/01/01 01:54:21;;;;;;;19.58;13.23;;;3.30;99.90;;;2.69;87.15;100364.41;4107129;28;20031;-71
2021/01/01 01:56:21;;;;;;;18.08;12.85;;;3.30;99.90;;;2.65;86.92;100363.00;4124524;28;20239;-71
2021/01/01 01:58:23;;;;;;;15.93;12.38;;;3.30;99.90;;;2.57;86.88;100343.69;4107319;28;20137;-70
2021/01/01 02:02:27;;;;;;;20.17;14.43;;;3.20;99.90;;;2.60;87.81;100369.44;4124453;28;20041;-70
2021/01/01 02:04:28;;;;;;;18.15;13.50;;;3.20;99.90;;;2.67;87.65;100371.50;4124376;28;20021;-71
2021/01/01 02:06:28;;;;;;;17.45;12.30;;;3.20;99.90;;;2.54;88.00;100370.75;4107140;28;20027;-71
2021/01/01 02:08:29;;;;;;;18.27;12.52;;;3.30;99.90;;;2.70;87.72;100376.47;4122869;28;20031;-71
2021/01/01 02:10:31;;;;;;;16.95;13.18;;;3.30;99.90;;;2.66;87.07;100364.63;4124213;28;20039;-71
2021/01/01 02:12:32;;;;;;;16.10;12.18;;;3.20;99.90;;;2.71;86.78;100361.69;4107354;28;20074;-71
2021/01/01 02:14:34;;;;;;;16.48;13.07;;;3.30;99.90;;;2.65;87.70;100372.56;4123074;28;20035;-71
2021/01/01 02:16:36;;;;;;;16.63;12.63;;;3.20;99.90;;;2.72;88.23;100378.97;4104387;28;20023;-71
2021/01/01 02:18:40;;;;;;;17.13;12.70;;;3.30;99.90;;;2.82;86.48;100369.53;4088634;29;20467;-71
2021/01/01 02:20:41;;;;;;;16.25;11.82;;;3.30;99.90;;;2.88;85.67;100365.63;4104805;28;20396;-71
2021/01/01 02:22:42;;;;;;;18.80;12.68;;;3.40;99.90;;;2.84;85.69;100365.00;4121636;28;20046;-71
2021/01/01 02:24:43;;;;;;;17.70;13.70;;;3.40;99.90;;;2.76;86.17;100364.78;4121884;28;20015;-71
2021/01/01 02:26:43;;;;;;;16.63;12.75;;;3.40;99.90;;;2.78;86.44;100368.06;4104490;29;20027;-71
2021/01/01 02:28:44;;;;;;;16.95;13.02;;;3.30;99.90;;;2.58;86.19;100371.34;4121886;28;20399;-71
2021/01/01 02:30:46;;;;;;;16.40;11.82;;;3.30;99.90;;;2.55;88.10;100377.63;4121803;28;20106;-71
2021/01/01 02:32:47;;;;;;;13.90;11.88;;;3.30;99.90;;;2.46;88.60;100377.47;4104494;29;20027;-71
2021/01/01 02:34:48;;;;;;;19.13;12.18;;;3.30;99.90;;;2.47;88.60;100381.75;4121529;28;20034;-71
2021/01/01 02:36:48;;;;;;;14.50;11.48;;;3.20;99.90;;;2.69;88.25;100385.22;4104277;28;20046;-70
2021/01/01 02:38:49;;;;;;;15.80;12.23;;;3.30;99.90;;;2.76;86.80;100383.00;4121693;28;20026;-71
2021/01/01 02:40:51;;;;;;;15.95;11.77;;;3.30;99.90;;;2.65;87.93;100382.97;4131127;28;20105;-71
2021/01/01 02:42:51;;;;;;;14.38;12.30;;;3.30;99.90;;;2.64;88.05;100376.94;4107207;28;20055;-71
2021/01/01 02:44:52;;;;;;;14.43;11.73;;;3.30;99.90;;;2.75;87.93;100394.34;4104330;28;20019;-71
2021/01/01 02:47:03;;;;;;;12.75;10.43;;;3.30;99.90;;;2.76;86.91;100389.03;4121553;28;20031;-71
2021/01/01 02:49:04;;;;;;;14.70;11.52;;;3.30;99.90;;;2.74;87.64;100388.34;4107429;28;20027;-70
2021/01/01 02:51:05;;;;;;;15.63;11.75;;;3.30;99.90;;;2.71;87.88;100380.75;4121347;28;20027;-71
2021/01/01 02:53:06;;;;;;;16.80;11.25;;;3.30;99.90;;;2.78;87.46;100387.16;4121266;28;20026;-70
2021/01/01 02:55:08;;;;;;;12.68;10.60;;;3.00;99.90;;;2.73;87.72;100385.84;4121429;28;20035;-71
2021/01/01 02:57:09;;;;;;;15.02;10.93;;;3.40;99.90;;;2.78;87.58;100388.91;4121285;28;20034;-71
2021/01/01 02:59:10;;;;;;;14.15;11.05;;;3.30;99.90;;;2.84;87.18;100398.06;4121236;28;20728;-71
2021/01/01 03:01:11;;;;;;;14.13;11.00;;;3.40;99.90;;;2.78;87.56;100397.56;4121447;28;20031;-71
2021/01/01 03:03:11;;;;;;;10.75;9.15;;;3.40;99.90;;;2.76;87.75;100390.81;4121266;28;20042;-71
2021/01/01 03:05:13;;;;;;;12.80;10.43;;;3.30;99.90;;;2.77;88.65;100398.53;4121261;28;20398;-71
2021/01/01 03:07:13;;;;;;;10.93;9.65;;;3.40;99.90;;;2.66;88.45;100398.47;4120862;28;20082;-71
2021/01/01 03:09:14;;;;;;;13.68;9.88;;;3.30;99.90;;;2.64;88.81;100402.13;4104002;28;20027;-71
2021/01/01 03:11:15;;;;;;;11.68;9.65;;;3.30;99.90;;;2.77;88.07;100397.69;4088001;29;20027;-71
2021/01/01 03:13:16;;;;;;;12.35;10.02;;;3.30;99.90;;;2.94;87.05;100393.81;4103957;28;20035;-71
2021/01/01 03:15:17;;;;;;;12.00;9.75;;;3.40;99.90;;;2.80;87.86;100397.47;4121040;28;20105;-71
2021/01/01 03:17:18;;;;;;;11.63;10.15;;;3.50;99.90;;;2.76;88.20;100390.81;4103815;28;20023;-71
2021/01/01 03:19:19;;;;;;;12.27;10.15;;;3.40;99.90;;;2.76;88.49;100396.03;4121112;28;20038;-71
2021/01/01 03:21:21;;;;;;;11.98;10.30;;;3.40;99.90;;;2.78;89.22;100399.34;4120792;28;20078;-71
2021/01/01 03:23:22;;;;;;;11.38;10.25;;;3.40;99.90;;;2.85;88.16;100395.34;4120634;28;20062;-71
2021/01/01 03:25:22;;;;;;;11.15;9.35;;;3.40;99.90;;;2.70;89.23;100397.31;4120966;28;20544;-71
2021/01/01 03:27:23;;;;;;;12.45;10.95;;;3.40;99.90;;;2.82;87.80;100398.16;4120655;28;20027;-71
2021/01/01 03:29:24;;;;;;;12.25;10.55;;;3.50;99.90;;;2.71;88.75;100408.56;4103734;28;20027;-71
2021/01/01 03:31:25;;;;;;;12.65;10.82;;;3.40;99.90;;;2.72;89.39;100405.00;4120822;28;20026;-71
2021/01/01 03:33:26;;;;;;;12.82;10.40;;;3.40;99.90;;;2.72;88.68;100407.59;4103493;28;20019;-71
2021/01/01 03:35:27;;;;;;;11.63;10.43;;;3.40;99.90;;;2.96;87.45;100407.53;4120850;28;20026;-70
2021/01/01 03:37:28;;;;;;;12.95;10.52;;;3.40;99.90;;;2.95;86.74;100405.91;4120466;28;20026;-70
2021/01/01 03:39:28;;;;;;;13.32;10.48;;;3.50;99.90;;;2.77;88.28;100397.69;4120615;28;20059;-71
2021/01/01 03:41:29;;;;;;;13.75;10.55;;;3.50;99.90;;;2.88;87.81;100405.53;4120418;28;20094;-70
2021/01/01 03:43:30;;;;;;;12.40;10.80;;;3.40;99.90;;;2.73;89.20;100398.84;4103365;29;20047;-70
2021/01/01 03:45:31;;;;;;;11.80;10.07;;;3.40;99.90;;;2.83;88.55;100401.59;4120600;28;20019;-70
2021/01/01 03:47:32;;;;;;;11.02;9.50;;;3.40;99.90;;;2.85;88.32;100405.75;4119407;28;20038;-70
2021/01/01 03:49:33;;;;;;;12.73;11.43;;;3.80;99.90;;;2.99;86.85;100407.31;4118739;28;20023;-71
2021/01/01 03:51:34;;;;;;;13.07;10.80;;;3.50;99.90;;;2.73;87.28;100404.91;4103194;29;20038;-71
2021/01/01 03:53:35;;;;;;;11.88;10.50;;;3.50;99.90;;;2.88;87.46;100400.31;4120572;28;20015;-70
2021/01/01 03:55:36;;;;;;;12.55;11.25;;;3.50;99.90;;;2.84;88.59;100398.06;4120358;28;20033;-70
2021/01/01 03:57:37;;;;;;;12.65;10.98;;;3.50;99.90;;;2.86;88.62;100393.56;4120305;28;20598;-70
2021/01/01 03:59:37;;;;;;;16.58;12.25;;;3.50;99.90;;;2.93;87.95;100403.38;4103300;29;20023;-71
2021/01/01 04:01:38;;;;;;;12.00;10.75;;;3.50;99.90;;;2.68;87.57;100387.97;4120277;28;20058;-71
2021/01/01 04:03:39;;;;;;;13.02;11.40;;;3.50;99.90;;;2.83;88.41;100399.84;4103157;29;20475;-71
2021/01/01 04:05:40;;;;;;;12.18;10.52;;;3.50;99.90;;;2.78;88.54;100394.97;4087060;29;20031;-71
2021/01/01 04:07:41;;;;;;;12.98;11.43;;;3.50;99.90;;;2.89;88.87;100396.78;4118773;28;20114;-70
2021/01/01 04:09:42;;;;;;;14.93;12.00;;;3.60;99.90;;;2.75;87.98;100394.34;4120296;28;20026;-71
2021/01/01 04:11:42;;;;;;;13.02;11.30;;;3.60;99.90;;;2.69;89.39;100394.81;4120204;28;20041;-71
2021/01/01 04:13:43;;;;;;;13.82;12.35;;;3.50;99.90;;;2.83;89.44;100399.00;4120148;28;20372;-70
2021/01/01 04:15:44;;;;;;;14.32;11.93;;;2.80;99.90;;;2.58;88.37;100398.22;4120218;28;20046;-71
2021/01/01 04:17:45;;;;;;;15.52;12.18;;;3.40;99.90;;;2.73;89.69;100388.44;4102936;29;20398;-70
2021/01/01 04:19:46;;;;;;;14.32;11.10;;;3.40;99.90;;;2.66;87.68;100395.88;4102913;29;20035;-70
2021/01/01 04:21:50;;;;;;;12.60;11.10;;;3.40;99.90;;;2.61;89.23;100398.00;4119720;28;20383;-71
2021/01/01 04:23:51;;;;;;;14.43;12.88;;;3.30;99.90;;;2.64;88.17;100397.78;4102960;29;20039;-71
2021/01/01 04:25:52;;;;;;;14.63;11.80;;;3.30;99.90;;;2.48;89.18;100399.84;4102904;29;20034;-70
2021/01/01 04:27:52;;;;;;;15.60;12.88;;;3.30;99.90;;;2.54;89.30;100401.19;4102849;29;20039;-70
2021/01/01 04:29:53;;;;;;;15.05;11.70;;;3.30;99.90;;;2.67;89.35;100401.91;4102763;29;20020;-70
2021/01/01 04:31:54;;;;;;;12.90;11.60;;;3.30;99.90;;;2.57;88.30;100390.53;4119817;28;20038;-70
2021/01/01 04:33:55;;;;;;;13.57;12.18;;;3.30;99.90;;;2.63;89.90;100410.88;4120034;28;20034;-70
2021/01/01 04:35:56;;;;;;;13.13;11.68;;;3.30;99.90;;;2.55;89.75;100403.66;4119869;28;20035;-71
2021/01/01 04:37:57;;;;;;;14.48;11.68;;;3.20;99.90;;;2.61;89.90;100405.81;4119656;28;20027;-70
2021/01/01 04:39:58;;;;;;;12.30;11.00;;;3.20;99.90;;;2.68;89.86;100404.41;4099354;28;20043;-70
2021/01/01 04:42:01;;;;;;;13.70;10.68;;;3.30;99.90;;;2.66;88.71;100408.06;4092514;29;20584;-70
2021/01/01 04:44:04;;;;;;;13.80;11.80;;;3.30;99.90;;;2.70;88.74;100405.13;4102796;28;20031;-70
2021/01/01 04:46:05;;;;;;;13.60;11.10;;;3.30;99.90;;;2.52;88.96;100400.44;4119804;28;20023;-70
2021/01/01 04:48:06;;;;;;;12.95;11.57;;;3.20;99.90;;;2.66;88.59;100397.63;4099817;29;20102;-70
2021/01/01 04:50:08;;;;;;;11.98;10.32;;;3.20;99.90;;;2.88;86.33;100405.53;4102695;29;20542;-70
2021/01/01 04:52:09;;;;;;;13.75;12.18;;;3.30;99.90;;;2.86;87.03;100390.97;4102354;29;20031;-70
2021/01/01 04:54:12;;;;;;;12.90;11.55;;;3.40;99.90;;;2.73;87.54;100399.69;4119612;28;20426;-70
2021/01/01 04:56:13;;;;;;;14.35;11.27;;;3.40;99.90;;;2.65;88.33;100399.44;4102568;29;20055;-71
2021/01/01 04:58:14;;;;;;;14.40;12.02;;;3.40;99.90;;;2.73;89.80;100397.09;4102597;29;20031;-71
2021/01/01 05:00:15;;;;;;;12.18;10.88;;;3.40;99.90;;;2.83;88.47;100392.03;4119652;28;20113;-71
2021/01/01 05:02:17;;;;;;;12.30;10.25;;;3.30;99.90;;;2.85;87.34;100389.28;4119254;28;20030;-71
2021/01/01 05:04:18;;;;;;;14.23;11.77;;;3.40;99.90;;;2.74;88.23;100387.50;4102572;29;20023;-71
2021/01/01 05:06:30;;;;;;;13.77;11.07;;;3.40;99.90;;;2.82;87.70;100398.16;4119656;28;20038;-71
2021/01/01 05:08:32;;;;;;;12.73;10.00;;;3.40;99.90;;;2.73;87.90;100388.44;4102408;28;20039;-71
2021/01/01 05:10:35;;;;;;;11.88;10.68;;;3.40;99.90;;;2.74;87.61;100392.72;4119493;28;20018;-70
2021/01/01 05:12:36;;;;;;;14.52;10.63;;;3.30;99.90;;;2.91;85.97;100394.88;4102518;29;20126;-70
2021/01/01 05:14:39;;;;;;;11.23;9.95;;;3.40;99.90;;;2.58;87.19;100397.38;4102433;29;20031;-71
2021/01/01 05:16:51;;;;;;;11.55;10.23;;;3.40;99.90;;;2.72;86.25;100398.03;4102386;29;20447;-70
2021/01/01 05:18:53;;;;;;;15.25;9.60;;;3.30;99.90;;;2.66;87.26;100392.44;4119580;28;20033;-71
2021/01/01 05:20:57;;;;;;;12.48;10.27;;;3.30;99.90;;;2.77;87.13;100389.88;4102389;28;20043;-71
2021/01/01 05:22:58;;;;;;;11.10;9.88;;;3.40;99.90;;;3.01;86.39;100395.00;4119137;28;20039;-71
2021/01/01 05:25:19;;;;;;;11.65;9.10;;;3.50;99.90;;;3.04;87.46;100400.81;4119283;28;20391;-71
2021/01/01 05:27:31;;;;;;;10.65;8.57;;;3.50;99.90;;;3.02;85.96;100407.06;4102594;28;20099;-71
2021/01/01 05:29:34;;;;;;;10.30;9.23;;;3.50;99.90;;;2.94;86.50;100405.06;4103099;28;20035;-70
2021/01/01 05:31:40;;;;;;;11.15;9.30;;;3.50;99.90;;;2.89;87.29;100401.16;4102375;28;20027;-71
2021/01/01 05:33:59;;;;;;;11.35;8.93;;;3.50;99.90;;;2.98;86.99;100411.72;4119511;28;20035;-71
2021/01/01 05:36:09;;;;;;;11.13;9.88;;;3.50;99.90;;;2.97;86.90;100409.22;4118007;28;20066;-71
2021/01/01 05:38:20;;;;;;;10.40;8.93;;;3.50;99.90;;;2.82;87.17;100413.78;4101874;29;20027;-71
2021/01/01 05:40:31;;;;;;;10.50;8.98;;;3.40;99.90;;;2.84;86.88;100403.28;4096760;29;20562;-71
2021/01/01 05:42:37;;;;;;;10.32;9.30;;;3.40;99.90;;;3.03;86.82;100412.19;4113329;28;20578;-71
2021/01/01 05:44:38;;;;;;;10.32;9.32;;;3.40;99.90;;;2.87;86.15;100413.47;4119312;28;20023;-70
2021/01/01 05:47:00;;;;;;;11.00;9.30;;;3.40;99.90;;;2.84;86.68;100422.31;4119544;28;20031;-71
2021/01/01 05:49:03;;;;;;;10.90;9.52;;;3.40;99.90;;;2.85;87.68;100418.78;4119092;28;20031;-71
2021/01/01 05:51:06;;;;;;;10.05;9.02;;;3.40;99.90;;;2.91;86.21;100413.09;4120356;28;20065;-71
2021/01/01 05:53:17;;;;;;;11.82;9.15;;;3.40;99.90;;;3.06;84.90;100419.78;4104778;29;20058;-71
2021/01/01 05:55:21;;;;;;;11.27;9.10;;;3.50;99.90;;;3.08;84.10;100415.25;4105256;28;20031;-70
2021/01/01 05:57:22;;;;;;;9.73;8.30;;;3.60;99.90;;;2.92;85.29;100422.59;4105405;28;20031;-71
2021/01/01 05:59:26;;;;;;;9.77;8.65;;;3.50;99.90;;;3.04;84.97;100433.88;4105133;29;20046;-71
2021/01/01 06:01:28;;;;;;;;;;;3.50;99.90;;;2.75;85.05;100425.59;4105446;29;20529;-70
2021/01/01 06:03:34;;;;;;;9.82;8.73;;;3.10;99.90;;;2.85;85.47;100425.75;4121008;28;19956;-70
2021/01/01 06:05:38;;;;;;;11.95;8.32;;;3.60;99.90;;;2.82;86.23;100433.78;4105401;28;20041;-70
2021/01/01 06:07:41;;;;;;;10.20;8.95;;;3.50;99.90;;;2.82;87.45;100442.44;4088854;29;20040;-70
2021/01/01 06:09:42;;;;;;;9.88;8.85;;;3.50;99.90;;;2.78;86.52;100434.03;4104776;28;20028;-70
2021/01/01 06:11:59;;;;;;;10.27;8.15;;;3.40;99.90;;;2.93;85.78;100433.84;4121837;28;20061;-70
2021/01/01 06:14:06;;;;;;;11.45;8.02;;;3.40;99.90;;;2.83;84.98;100441.50;4104993;28;20530;-71
2021/01/01 06:16:10;;;;;;;9.18;8.23;;;3.50;99.90;;;2.78;87.05;100444.44;4104926;29;20035;-71
2021/01/01 06:18:23;;;;;;;10.68;8.43;;;3.40;99.90;;;2.83;86.60;100444.13;4121989;28;20066;-71
2021/01/01 06:20:24;;;;;;;9.80;8.50;;;3.40;99.90;;;2.86;86.37;100458.69;4105756;28;20087;-71
2021/01/01 06:22:28;;;;;;;9.60;8.60;;;3.40;99.90;;;2.89;86.05;100456.69;4121682;28;20027;-71
2021/01/01 06:24:41;;;;;;;10.90;8.90;;;3.40;99.90;;;2.52;86.30;100455.94;4121736;28;20035;-71
2021/01/01 06:26:44;;;;;;;9.38;8.48;;;3.30;99.90;;;2.65;87.42;100464.53;4106197;28;20491;-71
2021/01/01 06:28:47;;;;;;;9.57;8.57;;;3.30;99.90;;;2.77;86.70;100462.81;4104600;28;20027;-71
2021/01/01 06:30:48;;;;;;;9.65;8.23;;;3.20;99.90;;;2.61;86.38;100457.88;4104376;29;20019;-70
2021/01/01 06:32:51;;;;;;;9.15;7.32;;;3.30;99.90;;;2.56;87.74;100457.41;4088343;29;20036;-71
2021/01/01 06:34:53;;;;;;;10.05;8.45;;;3.20;99.90;;;2.70;86.83;100464.19;4120274;28;20042;-71
2021/01/01 06:36:54;;;;;;;10.98;8.32;;;3.20;99.90;;;2.82;86.29;100458.06;4121312;28;20034;-71
2021/01/01 06:38:54;;;;;;;8.57;7.68;;;3.20;99.90;;;2.76;87.17;100466.34;4104060;29;20028;-71
2021/01/01 06:40:55;;;;;;;11.05;8.23;;;3.30;99.90;;;2.69;87.93;100465.13;4110921;28;20562;-71
2021/01/01 06:42:59;;;;;;;8.55;7.68;;;3.20;99.90;;;2.76;87.12;100469.78;4101444;29;20039;-71
2021/01/01 06:45:00;;;;;;;8.63;7.82;;;3.20;99.90;;;2.89;86.63;100464.50;4104115;28;20031;-71
2021/01/01 06:47:01;;;;;;;9.93;7.68;;;3.30;99.90;;;2.99;86.08;100473.28;4104237;29;20035;-71
2021/01/01 06:49:05;;;;;;;8.38;7.20;;;3.30;99.90;;;2.73;86.69;100482.19;4121119;28;20030;-71
2021/01/01 06:51:14;;;;;;;10.10;7.93;;;3.30;99.90;;;2.79;86.82;100476.53;4104090;28;20086;-70
2021/01/01 06:53:17;;;;;;;11.57;7.90;;;3.30;99.90;;;2.94;85.14;100485.81;4103723;29;20094;-71
2021/01/01 06:55:34;;;;;;;8.23;7.43;;;3.30;99.90;;;2.85;84.18;100490.88;4121232;28;20030;-71
2021/01/01 06:57:49;;;;;;;8.30;7.45;;;3.30;99.90;;;2.90;85.00;100488.78;4121068;28;20037;-70
2021/01/01 06:59:52;;;;;;;8.45;7.50;;;3.30;99.90;;;2.79;85.93;100489.56;4104009;28;20037;-70
2021/01/01 07:01:53;;;;;;;10.70;7.97;;;3.30;99.90;;;2.81;85.44;100505.09;4103808;28;20090;-70
2021/01/01 07:03:55;;;;;;;7.82;7.03;;;3.30;99.90;;;2.89;85.50;100492.31;4120582;28;20074;-71
2021/01/01 07:06:05;;;;;;;9.13;7.22;;;3.30;99.90;;;2.87;85.82;100497.63;4120897;28;20031;-71
2021/01/01 07:08:05;;;;;;;8.93;7.50;;;3.30;99.90;;;2.92;85.78;100500.75;4119715;28;20063;-70
2021/01/01 07:10:29;;;;;;;8.43;7.00;;;3.30;99.90;;;3.03;85.07;100507.75;4121108;28;20082;-71
2021/01/01 07:12:30;;;;;;;9.43;6.80;;;3.30;99.90;;;2.88;85.55;100504.50;4096430;28;20751;-71
2021/01/01 07:14:31;;;;;;;9.15;7.45;;;3.30;99.90;;;2.86;84.43;100500.34;4121001;28;20035;-71
2021/01/01 07:16:41;;;;;;;8.23;7.40;;;3.40;99.90;;;2.73;85.26;100513.44;4120946;28;20054;-70
2021/01/01 07:18:42;;;;;;;9.10;7.53;;;3.30;99.90;;;2.73;85.12;100506.47;4119490;28;20070;-70
2021/01/01 07:20:44;;;;;;;9.00;8.05;;;3.30;99.90;;;2.69;85.21;100501.56;4103561;29;20030;-70
2021/01/01 07:22:44;;;;;;;9.60;6.80;;;3.30;99.90;;;2.69;84.70;100519.81;4120561;28;20085;-70
2021/01/01 07:24:46;;;;;;;8.00;7.18;;;3.30;99.90;;;2.86;84.29;100511.63;4103787;29;20023;-71
2021/01/01 07:26:46;;;;;;;9.43;7.50;;;3.20;99.90;;;2.79;84.47;100511.22;4103466;29;20064;-70
2021/01/01 07:28:48;;;;;;;8.32;6.47;;;3.30;99.90;;;2.83;84.67;100529.25;4120829;28;20089;-71
2021/01/01 07:30:49;;;;;;;9.23;8.25;;;3.30;99.90;;;2.66;85.56;100520.03;4120457;28;20046;-70
2021/01/01 07:32:52;;;;;;;9.15;7.47;;;3.20;99.90;;;2.55;86.63;100513.00;4120668;28;20042;-71
2021/01/01 07:34:53;;;;;;;8.73;7.35;;;3.20;99.90;;;2.49;86.47;100523.03;4103394;29;20034;-70
2021/01/01 07:37:01;;;;;;;7.10;6.40;;;3.10;99.90;;;2.86;83.26;100532.44;4120456;28;20030;-70
2021/01/01 07:39:06;;;;;;;7.18;6.32;;;3.20;99.90;;;2.86;83.35;100531.63;4103170;28;20027;-71
2021/01/01 07:41:08;;;;;;;8.35;7.05;;;3.20;99.90;;;2.61;84.38;100530.78;4091789;29;20036;-70
2021/01/01 07:43:09;;;;;;;7.63;6.82;;;3.20;99.90;;;2.69;83.64;100531.06;4102013;29;20050;-71
2021/01/01 07:45:12;;;;;;;8.55;7.47;;;3.20;99.90;;;2.55;83.80;100528.63;4120687;28;20030;-71
2021/01/01 07:47:13;;;;;;;8.50;6.85;;;3.20;99.90;;;2.71;83.51;100533.56;4103477;29;20425;-71
2021/01/01 07:49:14;;;;;;;9.02;7.10;;;3.20;99.90;;;2.62;83.72;100552.47;4103137;29;20035;-71
2021/01/01 07:51:19;;;;;;;8.55;7.57;;;3.20;99.90;;;2.71;83.33;100536.16;4120383;28;20023;-70
2021/01/01 07:53:19;;;;;;;10.27;7.38;;;3.10;99.90;;;2.70;83.49;100542.31;4103371;29;20027;-71
2021/01/01 07:55:21;;;;;;;8.25;6.82;;;3.20;99.90;;;2.58;82.88;100551.00;4120384;28;20085;-71
2021/01/01 07:57:24;;;;;;;9.07;6.65;;;3.20;99.90;;;2.52;84.33;100548.84;4120276;28;20031;-70
2021/01/01 07:59:25;;;;;;;8.25;7.00;;;3.20;99.90;;;2.54;84.16;100546.97;4120227;28;20102;-71
2021/01/01 08:01:26;;;;;;;7.93;6.82;;;3.20;99.90;;;2.37;84.39;100555.13;4087278;29;20535;-71
2021/01/01 08:03:27;;;;;;;8.15;7.22;;;3.20;99.90;;;2.33;84.48;100554.50;4103089;29;20028;-71
2021/01/01 08:05:28;;;;;;;8.85;7.80;;;3.10;99.90;;;2.45;84.38;100560.66;4103087;29;20027;-71
2021/01/01 08:07:29;;;;;;;7.57;6.57;;;3.10;99.90;;;2.49;83.90;100551.66;4119938;28;20033;-70
2021/01/01 08:09:31;;;;;;;7.45;6.60;;;3.10;99.90;;;2.35;84.41;100557.03;4102989;29;20061;-71
2021/01/01 08:11:33;;;;;;;9.27;7.53;;;3.10;99.90;;;2.27;84.03;100565.34;4103189;28;20039;-70
2021/01/01 08:13:35;;;;;;;10.68;6.57;;;3.00;99.90;;;2.34;85.41;100565.75;4102719;28;20114;-71
2021/01/01 08:15:36;;;;;;;10.85;7.70;;;3.00;99.90;;;2.37;85.12;100570.75;4119295;28;20614;-70
2021/01/01 08:17:37;;;;;;;9.75;7.45;;;3.00;99.90;;;2.40;85.23;100578.34;4120241;28;20086;-71
2021/01/01 08:19:38;;;;;;;10.95;7.30;;;2.90;99.90;;;2.37;85.66;100573.34;4103076;29;20082;-72
2021/01/01 08:21:43;;;;;;;7.38;6.68;;;3.00;99.90;;;2.45;84.26;100569.25;4119707;28;20062;-72
2021/01/01 08:24:06;;;;;;;11.98;7.40;;;2.90;99.90;;;2.37;85.87;100587.19;4102821;29;20484;-72
2021/01/01 08:26:08;;;;;;;9.68;7.45;;;2.90;99.90;;;2.49;83.30;100575.94;4110972;28;20027;-71
2021/01/01 08:28:11;;;;;;;13.23;7.65;;;3.00;99.90;;;2.50;84.27;100590.63;4086117;29;20443;-72
2021/01/01 08:30:14;;;;;;;9.15;7.78;;;3.00;99.90;;;2.59;83.23;100591.72;4102830;28;20049;-72
2021/01/01 08:32:16;;;;;;;8.73;7.30;;;3.10;99.90;;;2.42;84.56;100590.31;4103849;28;20059;-72
2021/01/01 08:34:17;;;;;;;9.60;7.75;;;3.10;99.90;;;2.57;83.22;100593.63;4102702;28;20158;-71
2021/01/01 08:36:18;;;;;;;9.85;7.60;;;3.10;99.90;;;2.64;83.00;100589.63;4119484;28;20031;-72